Minerva Anna — SVNP — position and weather

sailwx.info

Track history (hours):
 
Tides and Currents Weather Stations Pressure Air Temp Water Temp Dewpoint Dewpoint Depression Visibility Wind Speed Wind Dir Waves Ship Positions

Minerva Anna

Last reported at 2014-Oct-22 05:33 UTC. Time now 2014-Oct-22 06:22 UTC.
Position N 38°57' W 011°59'.

Length 183 m; draft 12.5 m.

Type: Ship. MMSI: 240729000.

Date/timePositionNaut miles runAvg speedWind from/ knotsBaromVisibWave heightAir tempDewpointWater temp
2014-Oct-22 05:33N 38°57' W 011°59'1312.7
2014-Oct-22 04:33N 39°10' W 011°55'1312.6
2014-Oct-22 03:33N 39°22' W 011°51'1212.2
2014-Oct-22 02:33N 39°34' W 011°47'1211.8
2014-Oct-22 01:33N 39°45' W 011°43'1211.4
2014-Oct-22 00:32N 39°56' W 011°40'1311.4
2014-Oct-21 23:22N 40°09' W 011°36'911.2
2014-Oct-21 22:33N 40°18' W 011°33'1411.2
2014-Oct-21 21:18N 40°31' W 011°28'  
2014-Oct-18 14:33N 50°50' E 001°03'1110.9
2014-Oct-18 13:33N 50°57' E 001°16'1110.6
2014-Oct-18 12:34N 51°05' E 001°28'1010.0
2014-Oct-18 11:34N 51°11' E 001°41'10 9.6
2014-Oct-18 10:34N 51°19' E 001°50'10 9.6
2014-Oct-18 09:34N 51°27' E 001°57'10 9.6
2014-Oct-18 08:34N 51°34' E 002°07'1010.1
2014-Oct-18 07:34N 51°42' E 002°18'1010.3
2014-Oct-18 06:33N 51°50' E 002°29'1110.6
2014-Oct-18 05:31N 51°58' E 002°40'1411.4
2014-Oct-18 04:19N 52°12' E 002°42'4211.0
2014-Oct-18 00:29N 52°50' E 003°12'14010.7
2014-Oct-17 11:23N 54°53' E 005°07'24311.1
2014-Oct-16 13:33N 57°55' E 009°57'1111.2
2014-Oct-16 12:33N 58°00' E 010°16'1111.5
2014-Oct-16 11:33N 58°05' E 010°35'1211.8
2014-Oct-16 10:34N 58°11' E 010°55'1111.2
2014-Oct-16 09:33N 58°16' E 011°14'8 8.5
2014-Oct-16 08:34N 58°21' E 011°26'0 0.1
2014-Oct-16 07:33N 58°21' E 011°26'0 0.0
2014-Oct-16 06:33N 58°21' E 011°26'0 0.0
2014-Oct-16 05:33N 58°21' E 011°26'0 0.0
2014-Oct-16 04:33N 58°21' E 011°26'0 0.0
2014-Oct-16 03:33N 58°21' E 011°26'0 0.0
2014-Oct-16 02:33N 58°21' E 011°26'0 0.0
2014-Oct-16 01:33N 58°21' E 011°26'0 0.0
2014-Oct-16 00:33N 58°21' E 011°26'0 0.0
2014-Oct-15 23:33N 58°21' E 011°26'0 0.0
2014-Oct-15 22:33N 58°21' E 011°26'0 0.0
2014-Oct-15 21:33N 58°21' E 011°26'0 0.0
2014-Oct-15 20:33N 58°21' E 011°26'0 0.0
2014-Oct-15 19:33N 58°21' E 011°26'0 0.0
2014-Oct-15 18:33N 58°21' E 011°26'0 0.0
2014-Oct-15 17:33N 58°21' E 011°26'0 0.0
2014-Oct-15 16:33N 58°21' E 011°26'0 0.0
2014-Oct-15 15:33N 58°21' E 011°26'0 0.0
2014-Oct-15 14:33N 58°21' E 011°26'0 0.0
2014-Oct-15 13:33N 58°21' E 011°26'0 0.0
2014-Oct-15 12:33N 58°21' E 011°26'0 0.0
2014-Oct-15 11:33N 58°21' E 011°26'0 0.0
2014-Oct-15 10:33N 58°21' E 011°26'0 0.0
2014-Oct-15 09:33N 58°21' E 011°26'0 0.0
2014-Oct-15 08:33N 58°21' E 011°26'0 0.0
2014-Oct-15 07:33N 58°21' E 011°26'0 0.0
2014-Oct-15 06:33N 58°21' E 011°26'0 0.0
2014-Oct-15 05:33N 58°21' E 011°26'0 0.0
2014-Oct-15 04:33N 58°21' E 011°26'0 0.0
2014-Oct-15 03:33N 58°21' E 011°26'0 0.0
2014-Oct-15 02:33N 58°21' E 011°26'0 0.0
2014-Oct-15 01:33N 58°21' E 011°26'0 0.0
2014-Oct-15 00:33N 58°21' E 011°26'0 0.0
2014-Oct-14 23:33N 58°21' E 011°26'0 0.0
2014-Oct-14 22:33N 58°21' E 011°26'6 6.4
2014-Oct-14 21:33N 58°17' E 011°17'6 6.4
2014-Oct-14 20:33N 58°15' E 011°05'5 4.8
2014-Oct-14 19:33N 58°12' E 011°11'0 0.3
2014-Oct-14 18:33N 58°11' E 011°10'0 0.0
2014-Oct-14 17:33N 58°11' E 011°10'0 0.0
2014-Oct-14 16:33N 58°11' E 011°10'0 0.0
2014-Oct-14 15:33N 58°11' E 011°10'0 0.0
2014-Oct-14 14:33N 58°11' E 011°10'0 0.0
2014-Oct-14 13:33N 58°11' E 011°10'0 0.0
2014-Oct-14 12:33N 58°11' E 011°10'0 0.0
2014-Oct-14 11:33N 58°11' E 011°10'0 0.0
2014-Oct-14 10:33N 58°11' E 011°10'0 0.0
2014-Oct-14 09:33N 58°11' E 011°10'0 0.0
2014-Oct-14 08:33N 58°11' E 011°10'0 0.0
2014-Oct-14 07:33N 58°11' E 011°10'0 0.0
2014-Oct-14 06:33N 58°11' E 011°10'0 0.0
2014-Oct-14 05:33N 58°11' E 011°10'0 0.0
2014-Oct-14 04:33N 58°11' E 011°10'0 0.0
2014-Oct-14 03:33N 58°11' E 011°10'0 0.0
2014-Oct-14 02:33N 58°11' E 011°10'0 0.0
2014-Oct-14 01:33N 58°11' E 011°10'0 0.0
2014-Oct-14 00:33N 58°11' E 011°10'0 0.0
2014-Oct-13 23:33N 58°11' E 011°10'0 0.0
2014-Oct-13 22:33N 58°11' E 011°10'0 0.0
2014-Oct-13 21:33N 58°11' E 011°10'0 0.0
2014-Oct-13 20:33N 58°11' E 011°10'0 0.0
2014-Oct-13 19:33N 58°11' E 011°10'0 0.0
2014-Oct-13 18:33N 58°11' E 011°10'0 0.0
2014-Oct-13 17:33N 58°11' E 011°10'0 0.0
2014-Oct-13 16:33N 58°11' E 011°10'0 0.0
2014-Oct-13 15:33N 58°11' E 011°10'0 0.0
2014-Oct-13 14:33N 58°11' E 011°10'0 0.0
2014-Oct-13 13:33N 58°11' E 011°10'0 0.0
2014-Oct-13 12:33N 58°11' E 011°10'0 0.0
2014-Oct-13 11:33N 58°11' E 011°10'0 0.0
2014-Oct-13 10:33N 58°11' E 011°10'0 0.0
2014-Oct-13 09:33N 58°11' E 011°10'0 0.0
2014-Oct-13 08:33N 58°11' E 011°10'0 0.0
2014-Oct-13 07:33N 58°11' E 011°10'0 0.0
2014-Oct-13 06:33N 58°11' E 011°10'0 0.0
2014-Oct-13 05:33N 58°11' E 011°10'0 0.0
2014-Oct-13 04:33N 58°11' E 011°10'0 0.0
2014-Oct-13 03:33N 58°11' E 011°10'0 0.0
2014-Oct-13 02:33N 58°11' E 011°10'0 0.0
2014-Oct-13 01:33N 58°11' E 011°10'0 0.0
2014-Oct-13 00:33N 58°11' E 011°10'0 0.0
2014-Oct-12 23:33N 58°11' E 011°10'0 0.0
2014-Oct-12 22:33N 58°11' E 011°11'0 0.0
2014-Oct-12 21:33N 58°11' E 011°11'0 0.0
2014-Oct-12 20:33N 58°11' E 011°11'0 0.0
2014-Oct-12 19:33N 58°11' E 011°11'0 0.0
2014-Oct-12 18:33N 58°11' E 011°11'0 0.0
2014-Oct-12 17:33N 58°11' E 011°11'0 0.0
2014-Oct-12 16:33N 58°11' E 011°11'0 0.0
2014-Oct-12 15:33N 58°11' E 011°11'0 0.0
2014-Oct-12 14:33N 58°11' E 011°11'0 0.0
2014-Oct-12 13:33N 58°11' E 011°11'0 0.0
2014-Oct-12 12:33N 58°11' E 011°11'0 0.0
2014-Oct-12 11:33N 58°11' E 011°11'0 0.0
2014-Oct-12 10:33N 58°11' E 011°11'0 0.0
2014-Oct-12 09:33N 58°11' E 011°11'0 0.0
2014-Oct-12 08:33N 58°11' E 011°11'0 0.0
2014-Oct-12 07:33N 58°11' E 011°11'0 0.0
2014-Oct-12 06:33N 58°11' E 011°10'0 0.1
2014-Oct-12 05:33N 58°11' E 011°10'  
Track history (hours):
 
Tides and Currents Weather Stations Pressure Air Temp Water Temp Dewpoint Dewpoint Depression Visibility Wind Speed Wind Dir Waves Ship Positions

Minerva Anna

Last reported at 2014-Oct-22 05:33 UTC. Time now 2014-Oct-22 06:22 UTC.
Position N 38°57' W 011°59'.

Length 183 m; draft 12.5 m.

Type: Ship. MMSI: 240729000.

Date/timePositionNaut miles runAvg speedWind from/ knotsBaromVisibWave heightAir tempDewpointWater temp
2014-Oct-22 05:33N 38°57' W 011°59'1312.7
2014-Oct-22 04:33N 39°10' W 011°55'1312.6
2014-Oct-22 03:33N 39°22' W 011°51'1212.2
2014-Oct-22 02:33N 39°34' W 011°47'1211.8
2014-Oct-22 01:33N 39°45' W 011°43'1211.4
2014-Oct-22 00:32N 39°56' W 011°40'1311.4
2014-Oct-21 23:22N 40°09' W 011°36'911.2
2014-Oct-21 22:33N 40°18' W 011°33'1411.2
2014-Oct-21 21:18N 40°31' W 011°28'  
2014-Oct-18 14:33N 50°50' E 001°03'1110.9
2014-Oct-18 13:33N 50°57' E 001°16'1110.6
2014-Oct-18 12:34N 51°05' E 001°28'1010.0
2014-Oct-18 11:34N 51°11' E 001°41'10 9.6
2014-Oct-18 10:34N 51°19' E 001°50'10 9.6
2014-Oct-18 09:34N 51°27' E 001°57'10 9.6
2014-Oct-18 08:34N 51°34' E 002°07'1010.1
2014-Oct-18 07:34N 51°42' E 002°18'1010.3
2014-Oct-18 06:33N 51°50' E 002°29'1110.6
2014-Oct-18 05:31N 51°58' E 002°40'1411.4
2014-Oct-18 04:19N 52°12' E 002°42'4211.0
2014-Oct-18 00:29N 52°50' E 003°12'14010.7
2014-Oct-17 11:23N 54°53' E 005°07'24311.1
2014-Oct-16 13:33N 57°55' E 009°57'1111.2
2014-Oct-16 12:33N 58°00' E 010°16'1111.5
2014-Oct-16 11:33N 58°05' E 010°35'1211.8
2014-Oct-16 10:34N 58°11' E 010°55'1111.2
2014-Oct-16 09:33N 58°16' E 011°14'8 8.5
2014-Oct-16 08:34N 58°21' E 011°26'0 0.1
2014-Oct-16 07:33N 58°21' E 011°26'0 0.0
2014-Oct-16 06:33N 58°21' E 011°26'0 0.0
2014-Oct-16 05:33N 58°21' E 011°26'0 0.0
2014-Oct-16 04:33N 58°21' E 011°26'0 0.0
2014-Oct-16 03:33N 58°21' E 011°26'0 0.0
2014-Oct-16 02:33N 58°21' E 011°26'0 0.0
2014-Oct-16 01:33N 58°21' E 011°26'0 0.0
2014-Oct-16 00:33N 58°21' E 011°26'0 0.0
2014-Oct-15 23:33N 58°21' E 011°26'0 0.0
2014-Oct-15 22:33N 58°21' E 011°26'0 0.0
2014-Oct-15 21:33N 58°21' E 011°26'0 0.0
2014-Oct-15 20:33N 58°21' E 011°26'0 0.0
2014-Oct-15 19:33N 58°21' E 011°26'0 0.0
2014-Oct-15 18:33N 58°21' E 011°26'0 0.0
2014-Oct-15 17:33N 58°21' E 011°26'0 0.0
2014-Oct-15 16:33N 58°21' E 011°26'0 0.0
2014-Oct-15 15:33N 58°21' E 011°26'0 0.0
2014-Oct-15 14:33N 58°21' E 011°26'0 0.0
2014-Oct-15 13:33N 58°21' E 011°26'0 0.0
2014-Oct-15 12:33N 58°21' E 011°26'0 0.0
2014-Oct-15 11:33N 58°21' E 011°26'0 0.0
2014-Oct-15 10:33N 58°21' E 011°26'0 0.0
2014-Oct-15 09:33N 58°21' E 011°26'0 0.0
2014-Oct-15 08:33N 58°21' E 011°26'0 0.0
2014-Oct-15 07:33N 58°21' E 011°26'0 0.0
2014-Oct-15 06:33N 58°21' E 011°26'0 0.0
2014-Oct-15 05:33N 58°21' E 011°26'0 0.0
2014-Oct-15 04:33N 58°21' E 011°26'0 0.0
2014-Oct-15 03:33N 58°21' E 011°26'0 0.0
2014-Oct-15 02:33N 58°21' E 011°26'0 0.0
2014-Oct-15 01:33N 58°21' E 011°26'0 0.0
2014-Oct-15 00:33N 58°21' E 011°26'0 0.0
2014-Oct-14 23:33N 58°21' E 011°26'0 0.0
2014-Oct-14 22:33N 58°21' E 011°26'6 6.4
2014-Oct-14 21:33N 58°17' E 011°17'6 6.4
2014-Oct-14 20:33N 58°15' E 011°05'5 4.8
2014-Oct-14 19:33N 58°12' E 011°11'0 0.3
2014-Oct-14 18:33N 58°11' E 011°10'0 0.0
2014-Oct-14 17:33N 58°11' E 011°10'0 0.0
2014-Oct-14 16:33N 58°11' E 011°10'0 0.0
2014-Oct-14 15:33N 58°11' E 011°10'0 0.0
2014-Oct-14 14:33N 58°11' E 011°10'0 0.0
2014-Oct-14 13:33N 58°11' E 011°10'0 0.0
2014-Oct-14 12:33N 58°11' E 011°10'0 0.0
2014-Oct-14 11:33N 58°11' E 011°10'0 0.0
2014-Oct-14 10:33N 58°11' E 011°10'0 0.0
2014-Oct-14 09:33N 58°11' E 011°10'0 0.0
2014-Oct-14 08:33N 58°11' E 011°10'0 0.0
2014-Oct-14 07:33N 58°11' E 011°10'0 0.0
2014-Oct-14 06:33N 58°11' E 011°10'0 0.0
2014-Oct-14 05:33N 58°11' E 011°10'0 0.0
2014-Oct-14 04:33N 58°11' E 011°10'0 0.0
2014-Oct-14 03:33N 58°11' E 011°10'0 0.0
2014-Oct-14 02:33N 58°11' E 011°10'0 0.0
2014-Oct-14 01:33N 58°11' E 011°10'0 0.0
2014-Oct-14 00:33N 58°11' E 011°10'0 0.0
2014-Oct-13 23:33N 58°11' E 011°10'0 0.0
2014-Oct-13 22:33N 58°11' E 011°10'0 0.0
2014-Oct-13 21:33N 58°11' E 011°10'0 0.0
2014-Oct-13 20:33N 58°11' E 011°10'0 0.0
2014-Oct-13 19:33N 58°11' E 011°10'0 0.0
2014-Oct-13 18:33N 58°11' E 011°10'0 0.0
2014-Oct-13 17:33N 58°11' E 011°10'0 0.0
2014-Oct-13 16:33N 58°11' E 011°10'0 0.0
2014-Oct-13 15:33N 58°11' E 011°10'0 0.0
2014-Oct-13 14:33N 58°11' E 011°10'0 0.0
2014-Oct-13 13:33N 58°11' E 011°10'0 0.0
2014-Oct-13 12:33N 58°11' E 011°10'0 0.0
2014-Oct-13 11:33N 58°11' E 011°10'0 0.0
2014-Oct-13 10:33N 58°11' E 011°10'0 0.0
2014-Oct-13 09:33N 58°11' E 011°10'0 0.0
2014-Oct-13 08:33N 58°11' E 011°10'0 0.0
2014-Oct-13 07:33N 58°11' E 011°10'0 0.0
2014-Oct-13 06:33N 58°11' E 011°10'0 0.0
2014-Oct-13 05:33N 58°11' E 011°10'0 0.0
2014-Oct-13 04:33N 58°11' E 011°10'0 0.0
2014-Oct-13 03:33N 58°11' E 011°10'0 0.0
2014-Oct-13 02:33N 58°11' E 011°10'0 0.0
2014-Oct-13 01:33N 58°11' E 011°10'0 0.0
2014-Oct-13 00:33N 58°11' E 011°10'0 0.0
2014-Oct-12 23:33N 58°11' E 011°10'0 0.0
2014-Oct-12 22:33N 58°11' E 011°11'0 0.0
2014-Oct-12 21:33N 58°11' E 011°11'0 0.0
2014-Oct-12 20:33N 58°11' E 011°11'0 0.0
2014-Oct-12 19:33N 58°11' E 011°11'0 0.0
2014-Oct-12 18:33N 58°11' E 011°11'0 0.0
2014-Oct-12 17:33N 58°11' E 011°11'0 0.0
2014-Oct-12 16:33N 58°11' E 011°11'0 0.0
2014-Oct-12 15:33N 58°11' E 011°11'0 0.0
2014-Oct-12 14:33N 58°11' E 011°11'0 0.0
2014-Oct-12 13:33N 58°11' E 011°11'0 0.0
2014-Oct-12 12:33N 58°11' E 011°11'0 0.0
2014-Oct-12 11:33N 58°11' E 011°11'0 0.0
2014-Oct-12 10:33N 58°11' E 011°11'0 0.0
2014-Oct-12 09:33N 58°11' E 011°11'0 0.0
2014-Oct-12 08:33N 58°11' E 011°11'0 0.0
2014-Oct-12 07:33N 58°11' E 011°11'0 0.0
2014-Oct-12 06:33N 58°11' E 011°10'0 0.1
2014-Oct-12 05:33N 58°11' E 011°10'  

Dump ship's entire track history